createdAt,value
2022-09-01T00:00:50.830Z,0.50
2022-09-01T00:03:19.713Z,0.82
2022-09-01T00:05:46.297Z,0.70
2022-09-01T00:08:16.303Z,0.55
2022-09-01T00:10:45.210Z,0.80
2022-09-01T00:13:11.630Z,0.77
2022-09-01T00:15:38.139Z,0.85
2022-09-01T00:18:04.715Z,0.70
2022-09-01T00:20:32.007Z,0.75
2022-09-01T00:23:00.515Z,0.93
2022-09-01T00:25:28.252Z,0.95
2022-09-01T00:27:59.240Z,0.80
2022-09-01T00:30:26.200Z,0.90
2022-09-01T00:32:52.639Z,1.10
2022-09-01T00:35:19.924Z,0.90
2022-09-01T00:37:46.361Z,0.70
2022-09-01T00:40:14.416Z,1.20
2022-09-01T00:42:41.187Z,0.88
2022-09-01T00:45:08.907Z,0.88
2022-09-01T00:47:37.636Z,0.95
2022-09-01T00:50:06.383Z,0.80
2022-09-01T00:52:37.683Z,0.70
2022-09-01T00:55:15.240Z,0.70
2022-09-01T00:57:42.319Z,0.60
2022-09-01T01:00:18.735Z,0.60
2022-09-01T01:02:45.829Z,0.80
2022-09-01T01:05:15.125Z,0.80
2022-09-01T01:07:47.581Z,0.70
2022-09-01T01:10:16.020Z,0.70
2022-09-01T01:12:43.832Z,0.60
2022-09-01T01:15:12.085Z,1.20
2022-09-01T01:17:38.894Z,0.80
2022-09-01T01:20:26.042Z,0.50
2022-09-01T01:23:10.751Z,0.52
2022-09-01T01:25:47.000Z,0.90
2022-09-01T01:28:18.619Z,0.70
2022-09-01T01:30:52.087Z,0.73
2022-09-01T01:33:21.777Z,0.77
2022-09-01T01:35:51.780Z,0.80
2022-09-01T01:38:22.633Z,0.77
2022-09-01T01:40:49.586Z,0.80
2022-09-01T01:43:19.993Z,0.77
2022-09-01T01:45:49.100Z,0.70
2022-09-01T01:48:22.730Z,0.65
2022-09-01T01:50:50.670Z,0.70
2022-09-01T01:53:19.130Z,0.70
2022-09-01T01:55:50.201Z,0.80
2022-09-01T01:58:19.705Z,1.17
2022-09-01T02:00:48.454Z,0.90
2022-09-01T02:03:20.164Z,0.80
2022-09-01T02:05:48.563Z,0.80
2022-09-01T02:08:16.005Z,0.75
2022-09-01T02:10:45.480Z,0.75
2022-09-01T02:13:17.411Z,0.88
2022-09-01T02:15:50.381Z,0.80
2022-09-01T02:18:24.721Z,0.80
2022-09-01T02:20:52.218Z,0.50
2022-09-01T02:23:23.323Z,0.80
2022-09-01T02:26:14.573Z,0.68
2022-09-01T02:28:42.543Z,0.70
2022-09-01T02:31:11.246Z,0.68
2022-09-01T02:33:39.309Z,0.80
2022-09-01T02:36:09.140Z,0.50
2022-09-01T02:38:35.871Z,0.85
2022-09-01T02:41:05.598Z,1.00
2022-09-01T02:43:32.061Z,0.70
2022-09-01T02:46:01.073Z,0.70
2022-09-01T02:48:37.387Z,0.60
2022-09-01T02:51:10.905Z,0.70
2022-09-01T02:53:39.303Z,1.10
2022-09-01T02:56:09.572Z,0.60
2022-09-01T02:58:45.772Z,0.85
2022-09-01T03:01:34.683Z,0.82
2022-09-01T03:04:05.576Z,0.68
2022-09-01T03:06:34.421Z,0.70
2022-09-01T03:09:02.403Z,1.00
2022-09-01T03:11:30.976Z,0.90
2022-09-01T03:13:57.478Z,0.80
2022-09-01T03:16:24.171Z,0.80
2022-09-01T03:18:51.854Z,0.73
2022-09-01T03:21:19.421Z,0.55
2022-09-01T03:23:47.119Z,0.77
2022-09-01T03:26:14.749Z,0.70
2022-09-01T03:28:41.249Z,0.75
2022-09-01T03:31:08.901Z,0.80
2022-09-01T03:33:36.546Z,1.00
2022-09-01T03:36:03.412Z,1.00
2022-09-01T03:38:29.834Z,0.93
2022-09-01T03:41:00.866Z,0.60
2022-09-01T03:43:35.457Z,0.70
2022-09-01T03:46:02.817Z,0.80
2022-09-01T03:48:30.869Z,0.77
2022-09-01T03:51:02.474Z,0.85
2022-09-01T03:53:31.392Z,0.82
2022-09-01T03:55:58.842Z,0.90
2022-09-01T03:58:25.902Z,1.05
2022-09-01T04:00:55.374Z,1.35
2022-09-01T04:03:31.166Z,1.33
2022-09-01T04:05:59.578Z,1.17
2022-09-01T04:08:32.397Z,0.93
2022-09-01T04:11:02.937Z,0.80
2022-09-01T04:13:38.146Z,0.90
2022-09-01T04:16:10.701Z,1.15
2022-09-01T04:18:37.401Z,0.80
2022-09-01T04:21:07.173Z,0.90
2022-09-01T04:23:35.071Z,0.85
2022-09-01T04:26:09.048Z,0.80
2022-09-01T04:28:45.922Z,0.73
2022-09-01T04:31:20.675Z,0.85
2022-09-01T04:33:49.979Z,0.88
2022-09-01T04:36:23.936Z,0.80
2022-09-01T04:38:56.149Z,0.80
2022-09-01T04:41:25.605Z,0.90
2022-09-01T04:43:56.402Z,0.85
2022-09-01T04:46:25.944Z,1.02
2022-09-01T04:48:53.253Z,0.90
2022-09-01T04:51:20.764Z,0.73
2022-09-01T04:53:48.862Z,0.70
2022-09-01T04:56:20.669Z,1.10
2022-09-01T04:58:47.886Z,0.70
2022-09-01T05:01:20.215Z,0.75
2022-09-01T05:03:48.219Z,0.70
2022-09-01T05:06:19.969Z,0.70
2022-09-01T05:08:46.547Z,0.88
2022-09-01T05:11:16.899Z,0.73
2022-09-01T05:13:45.375Z,0.70
2022-09-01T05:16:15.781Z,0.60
2022-09-01T05:18:47.499Z,0.70
2022-09-01T05:21:17.042Z,0.60
2022-09-01T05:23:44.998Z,0.80
2022-09-01T05:26:20.465Z,0.95
2022-09-01T05:28:48.702Z,0.70
2022-09-01T05:31:19.595Z,0.80
2022-09-01T05:33:50.912Z,0.63
2022-09-01T05:36:20.316Z,0.70
2022-09-01T05:38:48.095Z,0.73
2022-09-01T05:41:16.605Z,0.60
2022-09-01T05:43:49.758Z,0.50
2022-09-01T05:46:19.008Z,0.95
2022-09-01T05:48:45.934Z,0.75
2022-09-01T05:51:40.264Z,0.70
2022-09-01T05:54:03.385Z,0.60
2022-09-01T05:56:31.439Z,0.80
2022-09-01T06:01:50.445Z,0.82
2022-09-01T06:04:17.247Z,0.60
2022-09-01T06:07:07.090Z,0.50
2022-09-01T06:09:33.688Z,0.50
2022-09-01T06:12:00.124Z,0.50
2022-09-01T06:14:26.585Z,0.65
2022-09-01T06:16:54.123Z,0.70
2022-09-01T06:19:21.732Z,0.57
2022-09-01T06:21:48.958Z,0.55
2022-09-01T06:24:15.405Z,0.70
2022-09-01T06:26:41.921Z,0.70
2022-09-01T06:29:10.443Z,0.80
2022-09-01T06:31:39.353Z,0.60
2022-09-01T06:34:08.696Z,0.65
2022-09-01T06:36:40.390Z,0.50
2022-09-01T06:39:07.219Z,0.60
2022-09-01T06:41:33.682Z,0.35
2022-09-01T06:44:01.442Z,0.60
2022-09-01T06:46:29.414Z,0.50
2022-09-01T06:48:58.891Z,0.50
2022-09-01T06:51:28.542Z,0.40
2022-09-01T06:53:59.480Z,0.90
2022-09-01T06:56:30.993Z,0.70
2022-09-01T06:58:58.910Z,0.70
2022-09-01T07:01:27.563Z,0.70
2022-09-01T07:03:57.099Z,0.45
2022-09-01T07:09:22.147Z,0.50
2022-09-01T07:12:25.348Z,0.70
2022-09-01T07:17:42.517Z,0.52
2022-09-01T07:20:26.801Z,0.43
2022-09-01T07:23:10.461Z,0.57
2022-09-01T07:28:37.692Z,0.70
2022-09-01T07:33:54.328Z,0.80
2022-09-01T07:36:28.969Z,0.88
2022-09-01T07:42:59.197Z,0.90
2022-09-01T07:44:28.836Z,0.63
2022-09-01T07:52:29.268Z,0.80
2022-09-01T07:54:55.917Z,0.52
2022-09-01T07:57:22.960Z,0.55
2022-09-01T07:59:53.873Z,0.50
2022-09-01T08:02:20.413Z,0.60
2022-09-01T08:04:46.924Z,0.50
2022-09-01T08:07:17.040Z,0.52
2022-09-01T08:09:44.726Z,0.65
2022-09-01T08:12:11.818Z,0.40
2022-09-01T08:14:38.512Z,0.40
2022-09-01T08:19:53.418Z,0.60
2022-09-01T08:22:23.803Z,0.60
2022-09-01T08:24:50.956Z,0.50
2022-09-01T08:27:17.642Z,0.43
2022-09-01T08:29:44.210Z,0.50
2022-09-01T08:32:13.563Z,0.55
2022-09-01T08:34:40.006Z,0.40
2022-09-01T08:37:06.619Z,0.50
2022-09-01T08:39:33.119Z,0.50
2022-09-01T08:42:12.097Z,0.50
2022-09-01T08:44:46.932Z,0.52
2022-09-01T08:47:27.837Z,0.73
2022-09-01T08:49:54.544Z,0.45
2022-09-01T08:52:30.904Z,0.40
2022-09-01T08:55:15.186Z,0.40
2022-09-01T08:57:46.170Z,0.73
2022-09-01T09:00:15.632Z,0.50
2022-09-01T09:03:17.733Z,0.50
2022-09-01T09:06:07.729Z,0.40
2022-09-01T09:08:47.971Z,0.40
2022-09-01T09:11:42.279Z,0.55
2022-09-01T09:14:39.012Z,0.50
2022-09-01T09:17:05.806Z,0.43
2022-09-01T09:19:43.243Z,0.50
2022-09-01T09:22:13.031Z,0.40
2022-09-01T09:24:56.409Z,0.40
2022-09-01T09:27:26.893Z,0.40
2022-09-01T09:29:56.716Z,0.50
2022-09-01T09:32:44.294Z,0.60
2022-09-01T09:35:36.266Z,0.60
2022-09-01T09:38:21.040Z,0.40
2022-09-01T09:41:20.603Z,0.40
2022-09-01T09:43:58.687Z,0.40
2022-09-01T09:46:31.702Z,0.40
2022-09-01T09:49:36.123Z,0.30
2022-09-01T09:52:09.920Z,0.40
2022-09-01T09:54:38.899Z,0.20
2022-09-01T09:57:08.354Z,0.30
2022-09-01T10:00:04.581Z,0.35
2022-09-01T10:02:36.560Z,0.40
2022-09-01T10:05:44.229Z,0.32
2022-09-01T10:08:15.715Z,0.32
2022-09-01T10:10:57.841Z,0.30
2022-09-01T10:13:27.462Z,0.45
2022-09-01T10:15:56.757Z,0.40
2022-09-01T10:18:29.411Z,0.30
2022-09-01T10:21:02.732Z,0.35
2022-09-01T10:23:31.669Z,0.40
2022-09-01T10:26:13.094Z,0.32
2022-09-01T10:28:53.241Z,0.60
2022-09-01T10:31:20.428Z,0.40
2022-09-01T10:33:47.580Z,0.40
2022-09-01T10:36:15.121Z,0.50
2022-09-01T10:38:46.355Z,0.40
2022-09-01T10:41:58.133Z,0.50
2022-09-01T10:44:38.776Z,0.40
2022-09-01T10:47:14.701Z,0.30
2022-09-01T10:49:46.431Z,0.43
2022-09-01T10:52:43.405Z,0.40
2022-09-01T10:55:23.983Z,0.47
2022-09-01T11:01:40.542Z,0.28
2022-09-01T11:03:56.757Z,0.45
2022-09-01T11:06:42.372Z,0.60
2022-09-01T11:09:22.506Z,0.40
2022-09-01T11:11:56.065Z,0.60
2022-09-01T11:14:24.766Z,0.50
2022-09-01T11:17:29.298Z,0.38
2022-09-01T11:20:10.626Z,0.35
2022-09-01T11:22:41.688Z,0.28
2022-09-01T11:25:12.643Z,0.50
2022-09-01T11:27:48.485Z,0.50
2022-09-01T11:30:30.754Z,0.30
2022-09-01T11:33:20.184Z,0.50
2022-09-01T11:35:47.015Z,0.40
2022-09-01T11:38:15.565Z,0.30
2022-09-01T11:40:43.181Z,0.43
2022-09-01T11:43:14.376Z,0.47
2022-09-01T11:46:01.949Z,0.30
2022-09-01T11:48:30.354Z,0.50
2022-09-01T11:50:59.889Z,0.50
2022-09-01T11:53:27.235Z,0.50
2022-09-01T11:55:56.925Z,0.40
2022-09-01T11:58:27.688Z,0.40
2022-09-01T12:00:55.519Z,0.30
2022-09-01T12:03:29.750Z,0.40
2022-09-01T12:06:01.741Z,0.50
2022-09-01T12:08:31.396Z,0.40
2022-09-01T12:11:27.350Z,0.30
2022-09-01T12:13:56.864Z,0.30
2022-09-01T12:16:23.391Z,0.30
2022-09-01T12:18:52.565Z,0.40
2022-09-01T12:21:29.951Z,0.20
2022-09-01T12:24:15.997Z,0.40
2022-09-01T12:26:43.165Z,0.38
2022-09-01T12:29:11.292Z,0.40
2022-09-01T12:31:40.864Z,0.40
2022-09-01T12:34:24.050Z,0.20
2022-09-01T12:37:02.635Z,0.40
2022-09-01T12:39:44.801Z,0.30
2022-09-01T12:42:41.533Z,0.50
2022-09-01T12:45:12.447Z,0.40
2022-09-01T12:47:48.062Z,0.45
2022-09-01T12:50:16.583Z,0.35
2022-09-01T12:52:52.505Z,0.30
2022-09-01T12:58:10.086Z,0.50
2022-09-01T13:00:55.715Z,0.40
2022-09-01T13:03:22.915Z,0.50
2022-09-01T13:05:54.242Z,0.40
2022-09-01T13:08:22.799Z,0.50
2022-09-01T13:11:14.250Z,0.38
2022-09-01T13:13:40.718Z,0.30
2022-09-01T13:16:12.675Z,0.32
2022-09-01T13:21:30.502Z,0.30
2022-09-01T13:23:57.245Z,0.40
2022-09-01T13:26:24.055Z,0.40
2022-09-01T13:28:51.264Z,0.30
2022-09-01T13:31:34.159Z,0.40
2022-09-01T13:34:23.497Z,0.50
2022-09-01T13:36:51.617Z,0.40
2022-09-01T13:39:19.194Z,0.40
2022-09-01T13:41:47.186Z,0.45
2022-09-01T13:44:13.847Z,0.43
2022-09-01T13:50:05.052Z,0.30
2022-09-01T13:52:14.612Z,0.43
2022-09-01T13:54:41.106Z,0.30
2022-09-01T13:57:07.538Z,0.50
2022-09-01T13:59:34.055Z,0.40
2022-09-01T14:02:01.481Z,0.55
2022-09-01T14:04:28.042Z,0.40
2022-09-01T14:06:55.025Z,0.47
2022-09-01T14:09:21.866Z,0.50
2022-09-01T14:11:48.396Z,0.38
2022-09-01T14:14:14.838Z,0.30
2022-09-01T14:16:41.351Z,0.43
2022-09-01T14:19:07.964Z,0.40
2022-09-01T14:21:34.411Z,0.60
2022-09-01T14:24:01.230Z,0.38
2022-09-01T14:26:28.239Z,0.40
2022-09-01T14:28:54.940Z,0.50
2022-09-01T14:31:21.568Z,0.32
2022-09-01T14:33:49.074Z,0.60
2022-09-01T14:36:22.821Z,0.50
2022-09-01T14:38:50.282Z,0.30
2022-09-01T14:41:20.890Z,0.57
2022-09-01T14:43:47.598Z,0.47
2022-09-01T14:46:14.094Z,0.40
2022-09-01T14:48:41.209Z,0.47
2022-09-01T14:51:08.703Z,0.40
2022-09-01T14:53:35.650Z,0.50
2022-09-01T14:56:02.955Z,0.40
2022-09-01T14:58:29.944Z,0.57
2022-09-01T15:01:03.579Z,0.50
2022-09-01T15:03:34.379Z,0.60
2022-09-01T15:06:00.826Z,0.50
2022-09-01T15:08:27.292Z,0.40
2022-09-01T15:10:53.733Z,0.40
2022-09-01T15:13:20.198Z,0.40
2022-09-01T15:15:46.760Z,0.40
2022-09-01T15:18:13.383Z,0.40
2022-09-01T15:20:46.317Z,0.60
2022-09-01T15:23:15.932Z,0.60
2022-09-01T15:25:42.426Z,0.30
2022-09-01T15:28:08.989Z,0.45
2022-09-01T15:30:35.759Z,0.50
2022-09-01T15:33:02.544Z,0.50
2022-09-01T15:35:29.930Z,0.60
2022-09-01T15:37:56.534Z,0.40
2022-09-01T15:40:23.522Z,0.40
2022-09-01T15:42:50.007Z,0.60
2022-09-01T15:45:21.007Z,0.45
2022-09-01T15:47:50.848Z,0.40
2022-09-01T15:50:21.412Z,0.40
2022-09-01T15:52:55.908Z,0.40
2022-09-01T15:55:30.958Z,0.40
2022-09-01T15:57:58.908Z,0.40
2022-09-01T16:00:26.818Z,0.70
2022-09-01T16:02:54.523Z,0.40
2022-09-01T16:05:21.017Z,0.45
2022-09-01T16:07:47.613Z,0.32
2022-09-01T16:10:14.214Z,0.50
2022-09-01T16:12:43.799Z,0.40
2022-09-01T16:15:16.658Z,0.50
2022-09-01T16:17:56.905Z,0.43
2022-09-01T16:20:26.363Z,0.50
2022-09-01T16:22:57.456Z,0.60
2022-09-01T16:25:30.483Z,0.50
2022-09-01T16:27:57.870Z,0.50
2022-09-01T16:30:28.636Z,0.50
2022-09-01T16:32:58.416Z,0.50
2022-09-01T16:35:36.126Z,0.43
2022-09-01T16:38:33.079Z,0.50
2022-09-01T16:41:01.590Z,0.40
2022-09-01T16:43:39.194Z,0.30
2022-09-01T16:46:20.640Z,0.47
2022-09-01T16:49:08.268Z,0.40
2022-09-01T16:52:01.946Z,0.40
2022-09-01T16:54:43.020Z,0.50
2022-09-01T16:57:20.703Z,0.45
2022-09-01T16:59:58.903Z,0.40
2022-09-01T17:02:43.539Z,0.40
2022-09-01T17:05:24.629Z,0.50
2022-09-01T17:08:10.199Z,0.30
2022-09-01T17:11:14.343Z,0.57
2022-09-01T17:13:47.922Z,0.75
2022-09-01T17:16:36.934Z,0.57
2022-09-01T17:19:10.364Z,0.45
2022-09-01T17:21:49.425Z,0.50
2022-09-01T17:24:38.584Z,0.75
2022-09-01T17:27:10.916Z,0.70
2022-09-01T17:29:42.931Z,0.50
2022-09-01T17:32:19.542Z,0.50
2022-09-01T17:34:54.896Z,0.63
2022-09-01T17:37:28.771Z,0.50
2022-09-01T17:40:15.702Z,0.60
2022-09-01T17:42:55.474Z,0.60
2022-09-01T17:45:51.156Z,0.57
2022-09-01T17:48:29.134Z,0.77
2022-09-01T17:51:11.595Z,0.50
2022-09-01T17:53:48.173Z,0.70
2022-09-01T17:56:33.249Z,0.60
2022-09-01T17:59:26.714Z,0.90
2022-09-01T18:02:32.195Z,0.80
2022-09-01T18:05:14.268Z,0.70
2022-09-01T18:07:49.290Z,0.45
2022-09-01T18:10:23.214Z,0.50
2022-09-01T18:12:53.252Z,0.40
2022-09-01T18:15:23.873Z,0.47
2022-09-01T18:18:10.911Z,0.40
2022-09-01T18:20:46.040Z,0.73
2022-09-01T18:23:15.833Z,0.82
2022-09-01T18:25:49.680Z,0.70
2022-09-01T18:28:16.178Z,0.50
2022-09-01T18:31:07.410Z,0.40
2022-09-01T18:33:59.110Z,0.60
2022-09-01T18:37:01.095Z,0.50
2022-09-01T18:39:35.435Z,0.80
2022-09-01T18:42:11.204Z,1.00
2022-09-01T18:44:48.257Z,0.70
2022-09-01T18:47:17.405Z,0.60
2022-09-01T18:50:17.778Z,0.40
2022-09-01T18:53:16.421Z,0.60
2022-09-01T18:55:50.588Z,0.70
2022-09-01T18:58:41.923Z,0.70
2022-09-01T19:01:12.967Z,0.50
2022-09-01T19:03:50.206Z,0.40
2022-09-01T19:06:26.953Z,0.50
2022-09-01T19:09:24.344Z,0.50
2022-09-01T19:12:10.448Z,0.50
2022-09-01T19:14:37.256Z,0.43
2022-09-01T19:17:40.023Z,0.75
2022-09-01T19:20:16.377Z,0.70
2022-09-01T19:23:04.826Z,0.50
2022-09-01T19:25:34.185Z,0.60
2022-09-01T19:28:21.121Z,0.60
2022-09-01T19:31:06.425Z,0.60
2022-09-01T19:33:39.317Z,0.77
2022-09-01T19:36:09.129Z,0.70
2022-09-01T19:38:37.541Z,0.63
2022-09-01T19:41:12.861Z,0.70
2022-09-01T19:43:40.451Z,0.57
2022-09-01T19:46:35.741Z,0.60
2022-09-01T19:49:26.482Z,0.60
2022-09-01T19:52:04.140Z,0.50
2022-09-01T19:54:44.736Z,0.50
2022-09-01T19:57:21.967Z,0.38
2022-09-01T20:00:13.245Z,0.40
2022-09-01T20:03:01.096Z,0.57
2022-09-01T20:05:31.687Z,0.60
2022-09-01T20:08:06.605Z,0.52
2022-09-01T20:10:39.042Z,0.60
2022-09-01T20:13:29.873Z,0.70
2022-09-01T20:16:24.815Z,0.55
2022-09-01T20:19:00.044Z,0.60
2022-09-01T20:21:26.492Z,0.57
2022-09-01T20:23:57.950Z,0.50
2022-09-01T20:26:46.936Z,0.60
2022-09-01T20:29:25.180Z,0.60
2022-09-01T20:31:55.626Z,0.52
2022-09-01T20:34:52.842Z,0.52
2022-09-01T20:37:27.246Z,0.50
2022-09-01T20:40:01.911Z,0.70
2022-09-01T20:43:03.938Z,0.60
2022-09-01T20:45:31.905Z,0.40
2022-09-01T20:47:58.261Z,0.75
2022-09-01T20:50:57.662Z,0.70
2022-09-01T20:53:34.199Z,0.50
2022-09-01T20:56:22.053Z,0.50
2022-09-01T20:59:11.366Z,0.63
2022-09-01T21:01:47.357Z,0.60
2022-09-01T21:04:30.981Z,0.50
2022-09-01T21:07:08.568Z,0.50
2022-09-01T21:09:45.995Z,0.60
2022-09-01T21:12:31.408Z,0.50
2022-09-01T21:15:16.161Z,0.68
2022-09-01T21:17:57.828Z,0.52
2022-09-01T21:20:43.011Z,0.40
2022-09-01T21:23:09.479Z,0.57
2022-09-01T21:25:35.934Z,1.20
2022-09-01T21:28:04.839Z,0.95
2022-09-01T21:30:33.969Z,0.70
2022-09-01T21:33:00.947Z,0.95
2022-09-01T21:35:27.976Z,0.60
2022-09-01T21:37:54.650Z,0.50
2022-09-01T21:40:22.887Z,0.60
2022-09-01T21:42:51.085Z,0.57
2022-09-01T21:45:21.173Z,0.70
2022-09-01T21:47:48.878Z,0.50
2022-09-01T21:50:17.626Z,0.60
2022-09-01T21:52:44.201Z,0.68
2022-09-01T21:55:11.126Z,0.80
2022-09-01T21:57:37.719Z,0.60
2022-09-01T22:00:10.017Z,0.60
2022-09-01T22:02:37.288Z,0.60
2022-09-01T22:05:05.849Z,0.60
2022-09-01T22:07:40.196Z,0.43
2022-09-01T22:10:14.568Z,0.70
2022-09-01T22:12:42.707Z,0.50
2022-09-01T22:15:11.217Z,0.50
2022-09-01T22:17:37.654Z,0.50
2022-09-01T22:20:07.741Z,0.55
2022-09-01T22:22:34.407Z,0.60
2022-09-01T22:25:05.642Z,0.50
2022-09-01T22:27:32.060Z,0.70
2022-09-01T22:29:58.489Z,0.50
2022-09-01T22:32:27.730Z,0.70
2022-09-01T22:34:56.302Z,0.68
2022-09-01T22:37:23.050Z,0.60
2022-09-01T22:39:49.770Z,0.50
2022-09-01T22:42:16.222Z,0.63
2022-09-01T22:44:42.657Z,0.82
2022-09-01T22:47:09.076Z,0.60
2022-09-01T22:49:35.505Z,0.60
2022-09-01T22:52:02.039Z,0.80
2022-09-01T22:54:28.638Z,0.55
2022-09-01T22:56:56.386Z,0.75
2022-09-01T22:59:25.968Z,0.50
2022-09-01T23:01:53.001Z,0.82
2022-09-01T23:04:19.549Z,0.60
2022-09-01T23:06:49.501Z,1.00
2022-09-01T23:09:16.848Z,1.10
2022-09-01T23:11:43.844Z,1.30
2022-09-01T23:14:10.336Z,1.42
2022-09-01T23:16:36.924Z,1.50
2022-09-01T23:19:04.039Z,0.75
2022-09-01T23:21:32.962Z,0.70
2022-09-01T23:24:00.124Z,0.90
2022-09-01T23:26:28.310Z,0.70
2022-09-01T23:28:55.049Z,0.68
2022-09-01T23:31:25.241Z,0.50
2022-09-01T23:33:51.914Z,0.52
2022-09-01T23:36:20.996Z,0.60
2022-09-01T23:38:48.344Z,0.60
2022-09-01T23:41:18.284Z,0.70
2022-09-01T23:43:44.883Z,0.70
2022-09-01T23:46:26.334Z,1.13
2022-09-01T23:48:53.873Z,1.38
2022-09-01T23:51:21.617Z,0.63
2022-09-01T23:53:48.380Z,0.80
2022-09-01T23:56:18.002Z,1.10
2022-09-01T23:58:44.624Z,1.00
